Logo Frankfurt-Egelsbach Airport
Hessische Flugplatz GmbH Egelsbach
Telefon : +49 (0)6103-9418-0
E-Mail : fly@egelsbach-airport.com
   

 

 

 

 

 

 

Aktuelle Daten

Öffnungszeiten: 0800 LT - SS+30 (max 2100 LT)

PPR: 0700 LT - 0800 LT, SS+30 - 2100 LT Tel +49 6103 9418-0

Behördlich vorgeschriebenes Briefing für NVFR-Anflüge mit HPA
für die Saison 2014/2015

» Behördlich vorgeschriebenes Briefing für NVFR-Anflüge mit HPA für die Saison 2014/2015

 

Webcam

Webcam

Wetterdaten

Beobachtung von : 18-APR-2015 - 23:30 UTC
Sonnenaufgang : 04:27 UTC
Sonnenuntergang : 18:23 UTC
Sicht : ausgefallen
Wolkenuntergrenze : nicht feststellbar
Wind : 100 / 1 kt
Wind extrem (10 min) : 070-110 / 1 kt
Temperatur : 2.3° Celsius
Taupunkt : -2.3° Celsius
QNH : 1023.9 hPa
Dichtehöhe : -1330 ft

Daten werden automatisch generiert. Verfügbarkeit und Richtigkeit ohne Gewähr.
Mit freundlicher Unterstützung des Deutschen Wetterdienstes

Metar

938
SADL31 EDFE 181850
METAR EDFE 181850Z 02003KT CAVOK 10/M04 Q1023=


Notam

Zur Zeit liegen keine NOTAM Meldungen vor.